sensor_id;sensor_type;location;lat;lon;timestamp;P1;durP1;ratioP1;P2;durP2;ratioP2
36449;SDS011;22475;51.390;7.180;2023-03-14T00:00:03;8.07;;;1.90;;
36449;SDS011;22475;51.390;7.180;2023-03-14T00:02:33;10.45;;;0.95;;
36449;SDS011;22475;51.390;7.180;2023-03-14T00:05:00;3.88;;;0.95;;
36449;SDS011;22475;51.390;7.180;2023-03-14T00:07:27;2.22;;;0.90;;
36449;SDS011;22475;51.390;7.180;2023-03-14T00:09:58;3.05;;;0.75;;
36449;SDS011;22475;51.390;7.180;2023-03-14T00:12:25;1.20;;;0.47;;
36449;SDS011;22475;51.390;7.180;2023-03-14T00:14:53;1.67;;;0.70;;
36449;SDS011;22475;51.390;7.180;2023-03-14T00:17:21;7.85;;;1.00;;
36449;SDS011;22475;51.390;7.180;2023-03-14T00:19:48;1.17;;;0.50;;
36449;SDS011;22475;51.390;7.180;2023-03-14T00:22:17;5.05;;;0.95;;
36449;SDS011;22475;51.390;7.180;2023-03-14T00:24:44;3.65;;;0.57;;
36449;SDS011;22475;51.390;7.180;2023-03-14T00:27:10;1.92;;;0.50;;
36449;SDS011;22475;51.390;7.180;2023-03-14T00:29:37;3.38;;;0.75;;
36449;SDS011;22475;51.390;7.180;2023-03-14T00:32:04;2.95;;;1.13;;
36449;SDS011;22475;51.390;7.180;2023-03-14T00:34:32;0.80;;;0.43;;
36449;SDS011;22475;51.390;7.180;2023-03-14T00:36:59;1.98;;;0.85;;
36449;SDS011;22475;51.390;7.180;2023-03-14T00:39:26;5.38;;;0.63;;
36449;SDS011;22475;51.390;7.180;2023-03-14T00:41:52;2.28;;;1.42;;
36449;SDS011;22475;51.390;7.180;2023-03-14T00:44:19;5.00;;;0.95;;
36449;SDS011;22475;51.390;7.180;2023-03-14T00:46:46;3.65;;;0.55;;
36449;SDS011;22475;51.390;7.180;2023-03-14T00:49:12;3.00;;;0.63;;
36449;SDS011;22475;51.390;7.180;2023-03-14T00:51:41;2.55;;;0.73;;
36449;SDS011;22475;51.390;7.180;2023-03-14T00:54:08;0.90;;;0.50;;
36449;SDS011;22475;51.390;7.180;2023-03-14T00:56:35;0.60;;;0.47;;
36449;SDS011;22475;51.390;7.180;2023-03-14T00:59:02;2.17;;;0.65;;
36449;SDS011;22475;51.390;7.180;2023-03-14T01:01:29;6.30;;;1.08;;
36449;SDS011;22475;51.390;7.180;2023-03-14T01:03:55;9.45;;;1.35;;
36449;SDS011;22475;51.390;7.180;2023-03-14T01:06:23;6.97;;;1.05;;
36449;SDS011;22475;51.390;7.180;2023-03-14T01:08:52;2.20;;;1.33;;
36449;SDS011;22475;51.390;7.180;2023-03-14T01:11:21;5.47;;;1.08;;
36449;SDS011;22475;51.390;7.180;2023-03-14T01:13:50;2.42;;;0.57;;
36449;SDS011;22475;51.390;7.180;2023-03-14T01:16:17;3.40;;;0.80;;
36449;SDS011;22475;51.390;7.180;2023-03-14T01:18:45;6.10;;;0.63;;
36449;SDS011;22475;51.390;7.180;2023-03-14T01:21:13;1.85;;;0.68;;
36449;SDS011;22475;51.390;7.180;2023-03-14T01:23:41;2.30;;;0.47;;
36449;SDS011;22475;51.390;7.180;2023-03-14T01:26:10;0.70;;;0.40;;
36449;SDS011;22475;51.390;7.180;2023-03-14T01:28:38;1.85;;;0.60;;
36449;SDS011;22475;51.390;7.180;2023-03-14T01:31:05;2.05;;;0.50;;
36449;SDS011;22475;51.390;7.180;2023-03-14T01:33:34;0.85;;;0.52;;
36449;SDS011;22475;51.390;7.180;2023-03-14T01:36:01;2.35;;;0.98;;
36449;SDS011;22475;51.390;7.180;2023-03-14T01:38:28;1.77;;;0.60;;
36449;SDS011;22475;51.390;7.180;2023-03-14T01:40:54;4.57;;;0.55;;
36449;SDS011;22475;51.390;7.180;2023-03-14T01:43:22;5.85;;;0.93;;
36449;SDS011;22475;51.390;7.180;2023-03-14T01:46:09;8.18;;;1.05;;
36449;SDS011;22475;51.390;7.180;2023-03-14T01:48:55;3.60;;;0.80;;
36449;SDS011;22475;51.390;7.180;2023-03-14T01:51:26;1.75;;;0.60;;
36449;SDS011;22475;51.390;7.180;2023-03-14T01:54:01;2.22;;;0.68;;
36449;SDS011;22475;51.390;7.180;2023-03-14T01:56:32;3.03;;;0.43;;
36449;SDS011;22475;51.390;7.180;2023-03-14T01:59:00;0.85;;;0.40;;
36449;SDS011;22475;51.390;7.180;2023-03-14T02:01:30;1.48;;;0.38;;
36449;SDS011;22475;51.390;7.180;2023-03-14T02:03:59;6.05;;;0.90;;
36449;SDS011;22475;51.390;7.180;2023-03-14T02:06:29;1.20;;;0.47;;
36449;SDS011;22475;51.390;7.180;2023-03-14T02:09:01;2.47;;;0.60;;
36449;SDS011;22475;51.390;7.180;2023-03-14T02:11:29;3.25;;;0.68;;
36449;SDS011;22475;51.390;7.180;2023-03-14T02:13:56;0.73;;;0.55;;
36449;SDS011;22475;51.390;7.180;2023-03-14T02:16:26;1.45;;;0.60;;
36449;SDS011;22475;51.390;7.180;2023-03-14T02:18:52;2.30;;;0.47;;
36449;SDS011;22475;51.390;7.180;2023-03-14T02:21:20;7.40;;;0.55;;
36449;SDS011;22475;51.390;7.180;2023-03-14T02:23:53;1.95;;;0.25;;
36449;SDS011;22475;51.390;7.180;2023-03-14T02:26:29;2.58;;;0.60;;
36449;SDS011;22475;51.390;7.180;2023-03-14T02:29:02;6.30;;;0.60;;
36449;SDS011;22475;51.390;7.180;2023-03-14T02:31:29;0.47;;;0.30;;
36449;SDS011;22475;51.390;7.180;2023-03-14T02:33:56;1.25;;;0.60;;
36449;SDS011;22475;51.390;7.180;2023-03-14T02:36:23;1.95;;;0.50;;
36449;SDS011;22475;51.390;7.180;2023-03-14T02:38:51;1.27;;;0.40;;
36449;SDS011;22475;51.390;7.180;2023-03-14T02:41:24;1.50;;;1.00;;
36449;SDS011;22475;51.390;7.180;2023-03-14T02:43:51;4.35;;;0.50;;
36449;SDS011;22475;51.390;7.180;2023-03-14T02:46:20;4.25;;;0.75;;
36449;SDS011;22475;51.390;7.180;2023-03-14T02:48:48;1.85;;;0.57;;
36449;SDS011;22475;51.390;7.180;2023-03-14T02:51:17;1.42;;;0.40;;
36449;SDS011;22475;51.390;7.180;2023-03-14T02:53:45;1.30;;;0.50;;
36449;SDS011;22475;51.390;7.180;2023-03-14T02:56:11;2.15;;;0.63;;
36449;SDS011;22475;51.390;7.180;2023-03-14T02:58:38;6.65;;;0.95;;
36449;SDS011;22475;51.390;7.180;2023-03-14T03:01:05;0.95;;;0.55;;
36449;SDS011;22475;51.390;7.180;2023-03-14T03:03:34;1.85;;;0.52;;
36449;SDS011;22475;51.390;7.180;2023-03-14T03:06:00;2.47;;;0.45;;
36449;SDS011;22475;51.390;7.180;2023-03-14T03:08:27;4.82;;;0.60;;
36449;SDS011;22475;51.390;7.180;2023-03-14T03:10:55;2.05;;;0.70;;
36449;SDS011;22475;51.390;7.180;2023-03-14T03:13:23;3.17;;;0.60;;
36449;SDS011;22475;51.390;7.180;2023-03-14T03:15:50;1.50;;;0.65;;
36449;SDS011;22475;51.390;7.180;2023-03-14T03:18:17;5.90;;;0.60;;
36449;SDS011;22475;51.390;7.180;2023-03-14T03:20:45;3.00;;;0.95;;
36449;SDS011;22475;51.390;7.180;2023-03-14T03:23:12;1.95;;;0.82;;
36449;SDS011;22475;51.390;7.180;2023-03-14T03:25:39;1.15;;;0.68;;
36449;SDS011;22475;51.390;7.180;2023-03-14T03:28:06;1.10;;;0.68;;
36449;SDS011;22475;51.390;7.180;2023-03-14T03:30:33;3.53;;;0.80;;
36449;SDS011;22475;51.390;7.180;2023-03-14T03:33:03;3.65;;;0.40;;
36449;SDS011;22475;51.390;7.180;2023-03-14T03:35:30;0.85;;;0.40;;
36449;SDS011;22475;51.390;7.180;2023-03-14T03:37:58;1.15;;;0.70;;
36449;SDS011;22475;51.390;7.180;2023-03-14T03:40:25;2.10;;;0.40;;
36449;SDS011;22475;51.390;7.180;2023-03-14T03:42:52;5.40;;;0.65;;
36449;SDS011;22475;51.390;7.180;2023-03-14T03:45:19;1.92;;;0.75;;
36449;SDS011;22475;51.390;7.180;2023-03-14T03:47:46;1.75;;;0.60;;
36449;SDS011;22475;51.390;7.180;2023-03-14T03:50:13;5.55;;;0.47;;
36449;SDS011;22475;51.390;7.180;2023-03-14T03:52:39;0.32;;;0.32;;
36449;SDS011;22475;51.390;7.180;2023-03-14T03:55:08;1.95;;;0.47;;
36449;SDS011;22475;51.390;7.180;2023-03-14T03:57:35;1.55;;;0.75;;
36449;SDS011;22475;51.390;7.180;2023-03-14T04:00:02;0.77;;;0.40;;
36449;SDS011;22475;51.390;7.180;2023-03-14T04:02:30;4.97;;;0.50;;
36449;SDS011;22475;51.390;7.180;2023-03-14T04:04:57;1.45;;;0.20;;
36449;SDS011;22475;51.390;7.180;2023-03-14T04:07:24;1.73;;;0.57;;
36449;SDS011;22475;51.390;7.180;2023-03-14T04:09:51;4.93;;;0.88;;
36449;SDS011;22475;51.390;7.180;2023-03-14T04:12:19;5.72;;;0.68;;
36449;SDS011;22475;51.390;7.180;2023-03-14T04:14:45;2.30;;;0.80;;
36449;SDS011;22475;51.390;7.180;2023-03-14T04:17:12;1.80;;;0.45;;
36449;SDS011;22475;51.390;7.180;2023-03-14T04:19:39;1.35;;;0.40;;
36449;SDS011;22475;51.390;7.180;2023-03-14T04:22:07;1.88;;;0.70;;
36449;SDS011;22475;51.390;7.180;2023-03-14T04:24:33;1.10;;;0.32;;
36449;SDS011;22475;51.390;7.180;2023-03-14T04:27:00;1.20;;;0.60;;
36449;SDS011;22475;51.390;7.180;2023-03-14T04:29:28;5.05;;;0.65;;
36449;SDS011;22475;51.390;7.180;2023-03-14T04:31:55;1.95;;;0.52;;
36449;SDS011;22475;51.390;7.180;2023-03-14T04:34:22;1.33;;;0.50;;
36449;SDS011;22475;51.390;7.180;2023-03-14T04:36:48;1.10;;;0.30;;
36449;SDS011;22475;51.390;7.180;2023-03-14T04:39:15;3.55;;;0.50;;
36449;SDS011;22475;51.390;7.180;2023-03-14T04:41:42;1.55;;;0.38;;
36449;SDS011;22475;51.390;7.180;2023-03-14T04:44:10;1.00;;;0.30;;
36449;SDS011;22475;51.390;7.180;2023-03-14T04:46:38;1.08;;;0.47;;
36449;SDS011;22475;51.390;7.180;2023-03-14T04:49:04;2.70;;;0.43;;
36449;SDS011;22475;51.390;7.180;2023-03-14T04:51:31;1.98;;;0.30;;
36449;SDS011;22475;51.390;7.180;2023-03-14T04:53:58;2.90;;;0.47;;
36449;SDS011;22475;51.390;7.180;2023-03-14T04:56:25;1.15;;;0.60;;
36449;SDS011;22475;51.390;7.180;2023-03-14T04:58:52;3.55;;;0.52;;
36449;SDS011;22475;51.390;7.180;2023-03-14T05:01:19;3.03;;;0.98;;
36449;SDS011;22475;51.390;7.180;2023-03-14T05:03:47;3.70;;;1.38;;
36449;SDS011;22475;51.390;7.180;2023-03-14T05:06:14;1.67;;;0.20;;
36449;SDS011;22475;51.390;7.180;2023-03-14T05:08:40;0.25;;;0.20;;
36449;SDS011;22475;51.390;7.180;2023-03-14T05:11:09;2.15;;;0.50;;
36449;SDS011;22475;51.390;7.180;2023-03-14T05:13:36;2.83;;;0.65;;
36449;SDS011;22475;51.390;7.180;2023-03-14T05:16:03;1.85;;;0.50;;
36449;SDS011;22475;51.390;7.180;2023-03-14T05:18:31;1.00;;;0.20;;
36449;SDS011;22475;51.390;7.180;2023-03-14T05:20:59;1.25;;;0.30;;
36449;SDS011;22475;51.390;7.180;2023-03-14T05:23:26;0.98;;;0.20;;
36449;SDS011;22475;51.390;7.180;2023-03-14T05:25:53;1.83;;;0.17;;
36449;SDS011;22475;51.390;7.180;2023-03-14T05:28:19;1.08;;;0.30;;
36449;SDS011;22475;51.390;7.180;2023-03-14T05:30:46;0.52;;;0.05;;
36449;SDS011;22475;51.390;7.180;2023-03-14T05:33:13;0.60;;;0.10;;
36449;SDS011;22475;51.390;7.180;2023-03-14T05:35:40;0.32;;;0.10;;
36449;SDS011;22475;51.390;7.180;2023-03-14T05:38:10;0.68;;;0.52;;
36449;SDS011;22475;51.390;7.180;2023-03-14T05:40:37;0.85;;;0.45;;
36449;SDS011;22475;51.390;7.180;2023-03-14T05:43:03;0.93;;;0.30;;
36449;SDS011;22475;51.390;7.180;2023-03-14T05:45:32;2.70;;;0.45;;
36449;SDS011;22475;51.390;7.180;2023-03-14T05:47:59;0.43;;;0.40;;
36449;SDS011;22475;51.390;7.180;2023-03-14T05:50:26;2.53;;;0.30;;
36449;SDS011;22475;51.390;7.180;2023-03-14T05:52:53;0.95;;;0.50;;
36449;SDS011;22475;51.390;7.180;2023-03-14T05:55:21;0.75;;;0.30;;
36449;SDS011;22475;51.390;7.180;2023-03-14T05:57:48;1.52;;;0.38;;
36449;SDS011;22475;51.390;7.180;2023-03-14T06:00:15;1.52;;;0.60;;
36449;SDS011;22475;51.390;7.180;2023-03-14T06:02:42;1.80;;;0.47;;
36449;SDS011;22475;51.390;7.180;2023-03-14T06:05:09;2.47;;;0.47;;
36449;SDS011;22475;51.390;7.180;2023-03-14T06:07:36;3.28;;;0.38;;
36449;SDS011;22475;51.390;7.180;2023-03-14T06:10:03;1.02;;;0.30;;
36449;SDS011;22475;51.390;7.180;2023-03-14T06:12:31;0.50;;;0.20;;
36449;SDS011;22475;51.390;7.180;2023-03-14T06:14:58;1.17;;;0.28;;
36449;SDS011;22475;51.390;7.180;2023-03-14T06:17:25;2.30;;;0.40;;
36449;SDS011;22475;51.390;7.180;2023-03-14T06:19:52;4.57;;;0.43;;
36449;SDS011;22475;51.390;7.180;2023-03-14T06:22:18;1.30;;;0.32;;
36449;SDS011;22475;51.390;7.180;2023-03-14T06:24:45;0.68;;;0.20;;
36449;SDS011;22475;51.390;7.180;2023-03-14T06:27:12;0.43;;;0.28;;
36449;SDS011;22475;51.390;7.180;2023-03-14T06:29:40;0.20;;;0.20;;
36449;SDS011;22475;51.390;7.180;2023-03-14T06:32:07;0.60;;;0.55;;
36449;SDS011;22475;51.390;7.180;2023-03-14T06:34:33;2.13;;;0.40;;
36449;SDS011;22475;51.390;7.180;2023-03-14T06:37:00;0.63;;;0.22;;
36449;SDS011;22475;51.390;7.180;2023-03-14T06:39:27;1.13;;;0.32;;
36449;SDS011;22475;51.390;7.180;2023-03-14T06:41:54;0.20;;;0.10;;
36449;SDS011;22475;51.390;7.180;2023-03-14T06:44:21;0.77;;;0.20;;
36449;SDS011;22475;51.390;7.180;2023-03-14T06:46:49;1.75;;;0.50;;
36449;SDS011;22475;51.390;7.180;2023-03-14T06:49:15;2.08;;;0.28;;
36449;SDS011;22475;51.390;7.180;2023-03-14T06:51:42;0.95;;;0.20;;
36449;SDS011;22475;51.390;7.180;2023-03-14T06:54:09;1.85;;;0.32;;
36449;SDS011;22475;51.390;7.180;2023-03-14T06:56:35;1.35;;;0.40;;
36449;SDS011;22475;51.390;7.180;2023-03-14T06:59:02;0.30;;;0.28;;
36449;SDS011;22475;51.390;7.180;2023-03-14T07:01:29;0.10;;;0.10;;
36449;SDS011;22475;51.390;7.180;2023-03-14T07:03:58;0.63;;;0.38;;
36449;SDS011;22475;51.390;7.180;2023-03-14T07:06:25;2.33;;;0.30;;
36449;SDS011;22475;51.390;7.180;2023-03-14T07:08:54;0.30;;;0.17;;
36449;SDS011;22475;51.390;7.180;2023-03-14T07:11:21;0.50;;;0.20;;
36449;SDS011;22475;51.390;7.180;2023-03-14T07:13:48;0.63;;;0.43;;
36449;SDS011;22475;51.390;7.180;2023-03-14T07:16:15;0.50;;;0.20;;
36449;SDS011;22475;51.390;7.180;2023-03-14T07:18:41;0.47;;;0.47;;
36449;SDS011;22475;51.390;7.180;2023-03-14T07:21:10;0.30;;;0.10;;
36449;SDS011;22475;51.390;7.180;2023-03-14T07:23:37;0.40;;;0.25;;
36449;SDS011;22475;51.390;7.180;2023-03-14T07:26:04;0.80;;;0.30;;
36449;SDS011;22475;51.390;7.180;2023-03-14T07:28:31;0.32;;;0.30;;
36449;SDS011;22475;51.390;7.180;2023-03-14T07:30:58;0.17;;;0.08;;
36449;SDS011;22475;51.390;7.180;2023-03-14T07:33:25;1.55;;;0.20;;
36449;SDS011;22475;51.390;7.180;2023-03-14T07:35:51;0.60;;;0.10;;
36449;SDS011;22475;51.390;7.180;2023-03-14T07:38:20;0.28;;;0.20;;
36449;SDS011;22475;51.390;7.180;2023-03-14T07:40:46;0.05;;;0.05;;
36449;SDS011;22475;51.390;7.180;2023-03-14T07:43:13;1.02;;;0.22;;
36449;SDS011;22475;51.390;7.180;2023-03-14T07:45:40;0.15;;;0.10;;
36449;SDS011;22475;51.390;7.180;2023-03-14T07:48:07;0.28;;;0.20;;
36449;SDS011;22475;51.390;7.180;2023-03-14T07:50:33;0.03;;;0.03;;
36449;SDS011;22475;51.390;7.180;2023-03-14T07:53:00;0.43;;;0.43;;
36449;SDS011;22475;51.390;7.180;2023-03-14T07:55:28;0.32;;;0.10;;
36449;SDS011;22475;51.390;7.180;2023-03-14T07:57:55;0.10;;;0.10;;
36449;SDS011;22475;51.390;7.180;2023-03-14T08:00:22;2.55;;;0.20;;
36449;SDS011;22475;51.390;7.180;2023-03-14T08:02:48;1.80;;;0.22;;
36449;SDS011;22475;51.390;7.180;2023-03-14T08:05:15;0.57;;;0.10;;
36449;SDS011;22475;51.390;7.180;2023-03-14T08:07:42;0.20;;;0.10;;
36449;SDS011;22475;51.390;7.180;2023-03-14T08:10:09;0.40;;;0.15;;
36449;SDS011;22475;51.390;7.180;2023-03-14T08:12:39;1.95;;;0.22;;
36449;SDS011;22475;51.390;7.180;2023-03-14T08:18:28;1.08;;;0.10;;
36449;SDS011;22475;51.390;7.180;2023-03-14T08:20:55;0.13;;;0.13;;
36449;SDS011;22475;51.390;7.180;2023-03-14T08:23:21;0.50;;;0.20;;
36449;SDS011;22475;51.390;7.180;2023-03-14T08:25:48;2.55;;;0.20;;
36449;SDS011;22475;51.390;7.180;2023-03-14T08:28:17;0.25;;;0.25;;
36449;SDS011;22475;51.390;7.180;2023-03-14T08:30:44;0.52;;;0.25;;
36449;SDS011;22475;51.390;7.180;2023-03-14T08:33:11;0.20;;;0.20;;
36449;SDS011;22475;51.390;7.180;2023-03-14T08:35:37;0.20;;;0.20;;
36449;SDS011;22475;51.390;7.180;2023-03-14T08:38:04;0.20;;;0.20;;
36449;SDS011;22475;51.390;7.180;2023-03-14T08:40:31;0.45;;;0.30;;
36449;SDS011;22475;51.390;7.180;2023-03-14T08:42:58;0.65;;;0.28;;
36449;SDS011;22475;51.390;7.180;2023-03-14T08:45:26;0.40;;;0.15;;
36449;SDS011;22475;51.390;7.180;2023-03-14T08:47:53;0.30;;;0.30;;
36449;SDS011;22475;51.390;7.180;2023-03-14T08:50:20;1.30;;;0.30;;
36449;SDS011;22475;51.390;7.180;2023-03-14T08:52:48;0.38;;;0.10;;
36449;SDS011;22475;51.390;7.180;2023-03-14T08:55:14;0.15;;;0.10;;
36449;SDS011;22475;51.390;7.180;2023-03-14T08:57:41;0.43;;;0.15;;
36449;SDS011;22475;51.390;7.180;2023-03-14T09:00:08;0.20;;;0.20;;
36449;SDS011;22475;51.390;7.180;2023-03-14T09:02:40;0.93;;;0.30;;
36449;SDS011;22475;51.390;7.180;2023-03-14T09:05:08;2.58;;;0.35;;
36449;SDS011;22475;51.390;7.180;2023-03-14T09:07:36;0.30;;;0.20;;
36449;SDS011;22475;51.390;7.180;2023-03-14T09:10:03;0.15;;;0.13;;
36449;SDS011;22475;51.390;7.180;2023-03-14T09:12:30;0.15;;;0.10;;
36449;SDS011;22475;51.390;7.180;2023-03-14T09:14:57;0.30;;;0.30;;
36449;SDS011;22475;51.390;7.180;2023-03-14T09:17:24;0.32;;;0.20;;
36449;SDS011;22475;51.390;7.180;2023-03-14T09:19:52;0.10;;;0.10;;
36449;SDS011;22475;51.390;7.180;2023-03-14T09:22:19;0.93;;;0.28;;
36449;SDS011;22475;51.390;7.180;2023-03-14T09:24:46;0.57;;;0.30;;
36449;SDS011;22475;51.390;7.180;2023-03-14T09:27:13;0.10;;;0.10;;
36449;SDS011;22475;51.390;7.180;2023-03-14T09:29:40;0.80;;;0.15;;
36449;SDS011;22475;51.390;7.180;2023-03-14T09:32:07;0.20;;;0.20;;
36449;SDS011;22475;51.390;7.180;2023-03-14T09:34:33;0.10;;;0.10;;
36449;SDS011;22475;51.390;7.180;2023-03-14T09:37:01;4.85;;;0.50;;
36449;SDS011;22475;51.390;7.180;2023-03-14T09:39:28;0.50;;;0.20;;
36449;SDS011;22475;51.390;7.180;2023-03-14T09:41:55;0.25;;;0.10;;
36449;SDS011;22475;51.390;7.180;2023-03-14T09:44:25;0.30;;;0.30;;
36449;SDS011;22475;51.390;7.180;2023-03-14T09:46:55;0.20;;;0.17;;
36449;SDS011;22475;51.390;7.180;2023-03-14T09:49:27;0.30;;;0.10;;
36449;SDS011;22475;51.390;7.180;2023-03-14T09:51:56;0.20;;;0.20;;
36449;SDS011;22475;51.390;7.180;2023-03-14T09:54:34;0.10;;;0.10;;
36449;SDS011;22475;51.390;7.180;2023-03-14T09:57:04;0.50;;;0.22;;
36449;SDS011;22475;51.390;7.180;2023-03-14T09:59:32;0.95;;;0.20;;
36449;SDS011;22475;51.390;7.180;2023-03-14T10:02:01;1.48;;;0.30;;
36449;SDS011;22475;51.390;7.180;2023-03-14T10:04:40;0.30;;;0.17;;
36449;SDS011;22475;51.390;7.180;2023-03-14T10:07:11;0.40;;;0.10;;
36449;SDS011;22475;51.390;7.180;2023-03-14T10:09:43;5.18;;;0.30;;
36449;SDS011;22475;51.390;7.180;2023-03-14T10:12:11;0.17;;;0.15;;
36449;SDS011;22475;51.390;7.180;2023-03-14T10:14:44;0.20;;;0.20;;
36449;SDS011;22475;51.390;7.180;2023-03-14T10:17:13;0.10;;;0.10;;
36449;SDS011;22475;51.390;7.180;2023-03-14T10:19:50;0.10;;;0.10;;
36449;SDS011;22475;51.390;7.180;2023-03-14T10:22:18;1.10;;;0.45;;
36449;SDS011;22475;51.390;7.180;2023-03-14T10:24:49;0.52;;;0.22;;
36449;SDS011;22475;51.390;7.180;2023-03-14T10:27:19;1.27;;;0.40;;
36449;SDS011;22475;51.390;7.180;2023-03-14T10:29:51;0.30;;;0.10;;
36449;SDS011;22475;51.390;7.180;2023-03-14T10:32:20;0.15;;;0.13;;
36449;SDS011;22475;51.390;7.180;2023-03-14T10:35:03;1.38;;;0.20;;
36449;SDS011;22475;51.390;7.180;2023-03-14T10:37:52;0.20;;;0.20;;
36449;SDS011;22475;51.390;7.180;2023-03-14T10:40:25;0.57;;;0.38;;
36449;SDS011;22475;51.390;7.180;2023-03-14T10:42:54;4.55;;;0.30;;
36449;SDS011;22475;51.390;7.180;2023-03-14T10:45:29;0.10;;;0.10;;
36449;SDS011;22475;51.390;7.180;2023-03-14T10:47:58;0.10;;;0.10;;
36449;SDS011;22475;51.390;7.180;2023-03-14T10:50:32;0.30;;;0.30;;
36449;SDS011;22475;51.390;7.180;2023-03-14T10:53:00;2.30;;;0.13;;
36449;SDS011;22475;51.390;7.180;2023-03-14T10:55:39;1.17;;;1.08;;
36449;SDS011;22475;51.390;7.180;2023-03-14T10:58:17;0.25;;;0.20;;
36449;SDS011;22475;51.390;7.180;2023-03-14T11:00:50;0.10;;;0.10;;
36449;SDS011;22475;51.390;7.180;2023-03-14T11:03:22;0.95;;;0.30;;
36449;SDS011;22475;51.390;7.180;2023-03-14T11:05:51;0.70;;;0.10;;
36449;SDS011;22475;51.390;7.180;2023-03-14T11:08:23;2.15;;;0.30;;
36449;SDS011;22475;51.390;7.180;2023-03-14T11:11:02;0.22;;;0.20;;
36449;SDS011;22475;51.390;7.180;2023-03-14T11:13:37;2.17;;;0.25;;
36449;SDS011;22475;51.390;7.180;2023-03-14T11:16:06;0.10;;;0.10;;
36449;SDS011;22475;51.390;7.180;2023-03-14T11:18:57;3.58;;;0.68;;
36449;SDS011;22475;51.390;7.180;2023-03-14T11:21:29;0.35;;;0.30;;
36449;SDS011;22475;51.390;7.180;2023-03-14T11:24:08;0.40;;;0.25;;
36449;SDS011;22475;51.390;7.180;2023-03-14T11:26:53;0.43;;;0.22;;
36449;SDS011;22475;51.390;7.180;2023-03-14T11:29:27;0.75;;;0.43;;
36449;SDS011;22475;51.390;7.180;2023-03-14T11:32:02;0.38;;;0.38;;
36449;SDS011;22475;51.390;7.180;2023-03-14T11:34:35;0.20;;;0.20;;
36449;SDS011;22475;51.390;7.180;2023-03-14T11:37:11;0.50;;;0.28;;
36449;SDS011;22475;51.390;7.180;2023-03-14T11:39:44;0.15;;;0.13;;
36449;SDS011;22475;51.390;7.180;2023-03-14T11:42:19;1.90;;;0.17;;
36449;SDS011;22475;51.390;7.180;2023-03-14T11:44:47;0.20;;;0.17;;
36449;SDS011;22475;51.390;7.180;2023-03-14T11:47:15;0.50;;;0.20;;
36449;SDS011;22475;51.390;7.180;2023-03-14T11:49:47;0.40;;;0.40;;
36449;SDS011;22475;51.390;7.180;2023-03-14T11:52:19;1.65;;;0.10;;
36449;SDS011;22475;51.390;7.180;2023-03-14T11:54:49;0.68;;;0.28;;
36449;SDS011;22475;51.390;7.180;2023-03-14T11:57:22;0.22;;;0.10;;
36449;SDS011;22475;51.390;7.180;2023-03-14T11:59:50;1.58;;;0.20;;
36449;SDS011;22475;51.390;7.180;2023-03-14T12:02:22;0.15;;;0.15;;
36449;SDS011;22475;51.390;7.180;2023-03-14T12:05:03;0.75;;;0.20;;
36449;SDS011;22475;51.390;7.180;2023-03-14T12:07:57;0.22;;;0.22;;
36449;SDS011;22475;51.390;7.180;2023-03-14T12:10:45;0.15;;;0.15;;
36449;SDS011;22475;51.390;7.180;2023-03-14T12:13:16;1.38;;;0.40;;
36449;SDS011;22475;51.390;7.180;2023-03-14T12:15:46;1.95;;;0.52;;
36449;SDS011;22475;51.390;7.180;2023-03-14T12:18:18;0.57;;;0.40;;
36449;SDS011;22475;51.390;7.180;2023-03-14T12:20:50;0.00;;;0.00;;
36449;SDS011;22475;51.390;7.180;2023-03-14T12:23:19;2.72;;;0.30;;
36449;SDS011;22475;51.390;7.180;2023-03-14T12:25:46;3.78;;;0.50;;
36449;SDS011;22475;51.390;7.180;2023-03-14T12:28:18;2.60;;;0.30;;
36449;SDS011;22475;51.390;7.180;2023-03-14T12:30:46;0.10;;;0.10;;
36449;SDS011;22475;51.390;7.180;2023-03-14T12:36:02;0.63;;;0.15;;
36449;SDS011;22475;51.390;7.180;2023-03-14T12:38:58;0.65;;;0.28;;
36449;SDS011;22475;51.390;7.180;2023-03-14T12:41:36;0.52;;;0.20;;
36449;SDS011;22475;51.390;7.180;2023-03-14T12:50:07;0.77;;;0.40;;
36449;SDS011;22475;51.390;7.180;2023-03-14T12:52:41;1.27;;;0.63;;
36449;SDS011;22475;51.390;7.180;2023-03-14T12:55:17;2.20;;;0.70;;
36449;SDS011;22475;51.390;7.180;2023-03-14T12:57:48;0.90;;;0.50;;
36449;SDS011;22475;51.390;7.180;2023-03-14T13:00:24;1.52;;;1.42;;
36449;SDS011;22475;51.390;7.180;2023-03-14T13:03:00;0.43;;;0.43;;
36449;SDS011;22475;51.390;7.180;2023-03-14T13:05:40;1.65;;;0.50;;
36449;SDS011;22475;51.390;7.180;2023-03-14T13:08:31;0.70;;;0.70;;
36449;SDS011;22475;51.390;7.180;2023-03-14T13:11:01;0.82;;;0.10;;
36449;SDS011;22475;51.390;7.180;2023-03-14T13:13:30;2.97;;;0.60;;
36449;SDS011;22475;51.390;7.180;2023-03-14T13:16:01;5.78;;;0.85;;
36449;SDS011;22475;51.390;7.180;2023-03-14T13:18:30;1.10;;;0.60;;
36449;SDS011;22475;51.390;7.180;2023-03-14T13:21:02;2.15;;;0.20;;
36449;SDS011;22475;51.390;7.180;2023-03-14T13:23:32;2.47;;;0.45;;
36449;SDS011;22475;51.390;7.180;2023-03-14T13:26:00;0.60;;;0.20;;
36449;SDS011;22475;51.390;7.180;2023-03-14T13:28:27;1.27;;;0.40;;
36449;SDS011;22475;51.390;7.180;2023-03-14T13:30:57;7.55;;;0.63;;
36449;SDS011;22475;51.390;7.180;2023-03-14T13:33:26;5.68;;;0.60;;
36449;SDS011;22475;51.390;7.180;2023-03-14T13:35:56;1.77;;;0.60;;
36449;SDS011;22475;51.390;7.180;2023-03-14T13:38:25;5.35;;;1.02;;
36449;SDS011;22475;51.390;7.180;2023-03-14T13:40:53;1.67;;;0.35;;
36449;SDS011;22475;51.390;7.180;2023-03-14T13:45:54;4.43;;;0.50;;
36449;SDS011;22475;51.390;7.180;2023-03-14T13:48:22;6.55;;;1.05;;
36449;SDS011;22475;51.390;7.180;2023-03-14T13:50:56;2.65;;;0.57;;
36449;SDS011;22475;51.390;7.180;2023-03-14T13:53:25;6.88;;;1.02;;
36449;SDS011;22475;51.390;7.180;2023-03-14T13:55:52;2.25;;;0.43;;
36449;SDS011;22475;51.390;7.180;2023-03-14T13:58:20;5.07;;;0.73;;
36449;SDS011;22475;51.390;7.180;2023-03-14T14:01:02;2.50;;;0.60;;
36449;SDS011;22475;51.390;7.180;2023-03-14T14:03:34;2.58;;;1.00;;
36449;SDS011;22475;51.390;7.180;2023-03-14T14:06:03;3.90;;;1.10;;
36449;SDS011;22475;51.390;7.180;2023-03-14T14:08:33;7.63;;;0.82;;
36449;SDS011;22475;51.390;7.180;2023-03-14T14:11:01;8.25;;;1.25;;
36449;SDS011;22475;51.390;7.180;2023-03-14T14:13:29;6.20;;;1.40;;
36449;SDS011;22475;51.390;7.180;2023-03-14T14:15:59;4.22;;;1.15;;
36449;SDS011;22475;51.390;7.180;2023-03-14T14:18:28;2.70;;;1.00;;
36449;SDS011;22475;51.390;7.180;2023-03-14T14:20:58;11.63;;;1.38;;
36449;SDS011;22475;51.390;7.180;2023-03-14T14:23:26;4.28;;;1.10;;
36449;SDS011;22475;51.390;7.180;2023-03-14T14:25:54;5.78;;;1.30;;
36449;SDS011;22475;51.390;7.180;2023-03-14T14:28:24;4.82;;;1.15;;
36449;SDS011;22475;51.390;7.180;2023-03-14T14:30:59;4.72;;;0.77;;
36449;SDS011;22475;51.390;7.180;2023-03-14T14:33:37;1.30;;;0.50;;
36449;SDS011;22475;51.390;7.180;2023-03-14T14:36:13;3.78;;;1.27;;
36449;SDS011;22475;51.390;7.180;2023-03-14T14:38:48;8.82;;;0.98;;
36449;SDS011;22475;51.390;7.180;2023-03-14T14:41:16;7.00;;;1.58;;
36449;SDS011;22475;51.390;7.180;2023-03-14T14:43:43;9.35;;;1.48;;
36449;SDS011;22475;51.390;7.180;2023-03-14T14:46:09;6.97;;;1.45;;
36449;SDS011;22475;51.390;7.180;2023-03-14T14:48:43;5.53;;;1.13;;
36449;SDS011;22475;51.390;7.180;2023-03-14T14:51:10;8.20;;;1.45;;
36449;SDS011;22475;51.390;7.180;2023-03-14T14:53:38;8.27;;;1.05;;
36449;SDS011;22475;51.390;7.180;2023-03-14T14:56:08;8.20;;;1.13;;
36449;SDS011;22475;51.390;7.180;2023-03-14T14:58:43;3.85;;;0.85;;
36449;SDS011;22475;51.390;7.180;2023-03-14T15:01:12;11.38;;;1.08;;
36449;SDS011;22475;51.390;7.180;2023-03-14T15:03:41;9.03;;;1.20;;
36449;SDS011;22475;51.390;7.180;2023-03-14T15:06:09;15.27;;;1.52;;
36449;SDS011;22475;51.390;7.180;2023-03-14T15:08:39;11.75;;;1.25;;
36449;SDS011;22475;51.390;7.180;2023-03-14T15:11:10;2.40;;;1.05;;
36449;SDS011;22475;51.390;7.180;2023-03-14T15:13:47;9.45;;;0.95;;